Archival Weather

Tokyo Intl

Tokyo, Japan (RJTT)

Report from: Sunday, March 19, 2023 1:30 AM UTC
Current time: Tuesday, May 30, 2023 4:56 PM UTC

Current weather
Weather history
Weather forecast

Temperature10.0°C (50.0°F)
Wind chill7.7°C (45.9°F)
Dew point1.0°C (33.8°F)
Winds 9 kts (4.6 m/s, 10.4 mph) East (90°)
Visibility6.2 mi. (10 km)
Clouds Few clouds 3,000 ft. (914 m)
Altimeter30.09 in.Hg (1019 mB)
Relative humidity54 %
Density altitude-692 ft. (-211 m)
Remarks No significant changes expected in the next two hours
Flight conditions Visual Meteorological Conditions
Raw dataRJTT 190130Z 09009KT 9999 FEW030 10/01 Q1019 NOSIG
An error has occurred. This application may no longer respond until reloaded. Reload 🗙